createdAt,value
2023-03-26T00:03:22.177Z,8.3
2023-03-26T00:18:56.164Z,8.3
2023-03-26T00:34:30.268Z,8.2
2023-03-26T00:50:04.318Z,7.9
2023-03-26T01:05:38.339Z,7.9
2023-03-26T01:21:12.342Z,8
2023-03-26T01:36:46.316Z,8.2
2023-03-26T01:52:20.334Z,8.3
2023-03-26T02:07:54.436Z,8.2
2023-03-26T02:23:28.419Z,8.1
2023-03-26T02:39:02.677Z,8.4
2023-03-26T02:54:36.695Z,8.5
2023-03-26T03:10:10.724Z,8.6
2023-03-26T03:25:44.784Z,8.4
2023-03-26T03:41:18.937Z,8.3
2023-03-26T03:56:53.062Z,8.2
2023-03-26T04:12:27.092Z,8.2
2023-03-26T04:28:01.087Z,8.1
2023-03-26T04:43:35.055Z,8.2
2023-03-26T04:59:09.117Z,8
2023-03-26T05:14:43.059Z,7.8
2023-03-26T05:30:17.115Z,8
2023-03-26T05:45:51.292Z,8.2
2023-03-26T06:01:25.381Z,8.4
2023-03-26T06:16:59.448Z,8.6
2023-03-26T06:32:46.211Z,8.9
2023-03-26T06:48:20.341Z,9.4
2023-03-26T07:03:54.531Z,9.6
2023-03-26T07:19:28.621Z,10.6
2023-03-26T07:35:02.638Z,10.6
2023-03-26T07:50:36.685Z,11.2
2023-03-26T08:06:10.965Z,11.3
2023-03-26T08:21:44.970Z,11.9
2023-03-26T08:37:19.037Z,12.2
2023-03-26T08:52:53.059Z,12.5
2023-03-26T09:08:31.486Z,12.8
2023-03-26T09:24:05.543Z,13.5
2023-03-26T09:39:39.601Z,13.7
2023-03-26T09:55:13.745Z,13.6
2023-03-26T10:10:47.845Z,13.9
2023-03-26T10:26:21.894Z,14.7
2023-03-26T10:41:55.957Z,14.1
2023-03-26T10:57:31.556Z,14.5
2023-03-26T11:13:06.367Z,13.8
2023-03-26T11:29:04.433Z,13.1
2023-03-26T11:45:05.314Z,13.1
2023-03-26T12:00:39.349Z,12.7
2023-03-26T12:16:13.570Z,12.5
2023-03-26T12:31:47.894Z,12.2
2023-03-26T12:48:28.494Z,12
2023-03-26T13:04:02.702Z,11.7
2023-03-26T13:19:36.728Z,11.4
2023-03-26T13:35:11.005Z,11.1
2023-03-26T13:50:45.082Z,10.9
2023-03-26T14:06:19.115Z,10.8
2023-03-26T14:21:53.180Z,10.8
2023-03-26T14:37:29.496Z,10.6
2023-03-26T14:53:03.529Z,10.4
2023-03-26T15:08:37.537Z,10.2
2023-03-26T15:24:11.563Z,10
2023-03-26T15:40:01.521Z,9.7
2023-03-26T15:55:35.507Z,9.7
2023-03-26T16:11:09.762Z,10
2023-03-26T16:26:43.794Z,10.1
2023-03-26T16:42:17.808Z,10
2023-03-26T16:57:51.820Z,10
2023-03-26T17:13:25.829Z,9.7
2023-03-26T17:28:59.910Z,9.5
2023-03-26T17:44:34.348Z,9.4
2023-03-26T18:00:08.363Z,9.2
2023-03-26T18:15:46.104Z,9
2023-03-26T18:31:20.690Z,9
2023-03-26T18:46:54.754Z,8.8
2023-03-26T19:02:29.589Z,8.5
2023-03-26T19:18:04.549Z,8.6
2023-03-26T19:33:40.012Z,8.5
2023-03-26T19:49:14.512Z,8.3
2023-03-26T20:04:48.516Z,8.1
2023-03-26T20:20:22.530Z,7.8
2023-03-26T20:36:04.901Z,7.8
2023-03-26T20:51:38.920Z,7.8
2023-03-26T21:07:19.910Z,7.5
2023-03-26T21:22:53.986Z,7.6
2023-03-26T21:38:27.937Z,7.1
2023-03-26T21:54:01.888Z,6.5
2023-03-26T22:09:37.919Z,6
2023-03-26T22:25:12.048Z,6.1
2023-03-26T22:40:46.113Z,5.6
2023-03-26T22:56:20.088Z,5
2023-03-26T23:11:54.010Z,4.5
2023-03-26T23:27:28.067Z,4.3
2023-03-26T23:43:02.259Z,4.3
2023-03-26T23:58:36.211Z,4.3
